Time;durP1;ratioP1;P1;durP2;ratioP2;P2;SDS_P1;SDS_P2;PMS_P1;PMS_P2;Temp;Humidity;BMP_temperature;BMP_pressure;BME280_temperature;BME280_humidity;BME280_pressure;Samples;Min_cycle;Max_cycle;Signal;HPM_P1;HPM_P2
2021/03/31 00:00:42;;;;;;;29.60;17.40;;;;;;;7.24;91.86;102108.78;5014237;28;20041;-84
2021/03/31 00:03:13;;;;;;;24.65;15.63;;;;;;;7.27;91.58;102108.56;5043506;28;20052;-82
2021/03/31 00:05:38;;;;;;;30.67;17.55;;;;;;;7.22;91.25;102105.34;5024146;28;20102;-84
2021/03/31 00:08:04;;;;;;;25.73;16.65;;;;;;;7.18;91.01;102104.72;5041979;28;20045;-86
2021/03/31 00:10:46;;;;;;;27.15;16.90;;;;;;;7.11;91.19;102107.97;5048269;28;20041;-81
2021/03/31 00:13:12;;;;;;;29.17;16.50;;;;;;;7.13;92.01;102108.69;5053360;28;20041;-81
2021/03/31 00:15:38;;;;;;;27.40;15.93;;;;;;;7.11;92.30;102091.94;5057938;28;20044;-82
2021/03/31 00:18:11;;;;;;;28.15;16.90;;;;;;;7.05;91.98;102103.91;5054626;28;20041;-81
2021/03/31 00:20:41;;;;;;;27.25;16.10;;;;;;;7.07;91.36;102093.97;5039549;28;20049;-81
2021/03/31 00:23:07;;;;;;;;;;;;;;;7.00;90.92;102087.38;5051112;28;20049;-84
2021/03/31 00:25:32;;;;;;;29.15;18.65;;;;;;;6.86;92.26;102085.69;5049906;28;20300;-85
2021/03/31 00:27:58;;;;;;;29.17;18.45;;;;;;;6.88;92.38;102083.75;5050416;28;20118;-84
2021/03/31 00:30:24;;;;;;;30.10;18.40;;;;;;;6.93;92.25;102078.97;5035103;28;20493;-81
2021/03/31 00:32:50;;;;;;;29.70;17.25;;;;;;;6.89;92.17;102072.13;5029564;28;20044;-87
2021/03/31 00:35:15;;;;;;;31.02;18.23;;;;;;;6.88;92.09;102065.09;5020939;28;20033;-86
2021/03/31 00:37:41;;;;;;;30.27;18.90;;;;;;;6.88;92.72;102070.41;5056069;28;20041;-83
2021/03/31 00:40:12;;;;;;;28.55;18.05;;;;;;;6.84;92.25;102063.56;5031136;28;20037;-88
2021/03/31 00:42:39;;;;;;;29.80;17.73;;;;;;;6.86;92.83;102068.81;5029469;28;20068;-80
2021/03/31 00:45:06;;;;;;;30.40;18.58;;;;;;;6.78;92.61;102064.00;5029096;28;20058;-82
2021/03/31 00:47:35;;;;;;;30.38;19.40;;;;;;;6.80;91.41;102062.09;5030915;28;20543;-85
2021/03/31 00:50:09;;;;;;;28.98;18.55;;;;;;;6.81;91.35;102055.78;5039348;28;20119;-85
2021/03/31 00:52:36;;;;;;;33.78;19.98;;;;;;;6.82;92.39;102054.84;5022867;28;20128;-88
2021/03/31 00:55:02;;;;;;;28.42;18.55;;;;;;;6.80;91.47;102051.44;5049394;28;20056;-85
2021/03/31 00:57:28;;;;;;;29.58;19.58;;;;;;;6.74;91.83;102047.38;5030440;28;20040;-86
2021/03/31 00:59:55;;;;;;;29.92;19.17;;;;;;;6.74;92.25;102041.19;5045808;28;20111;-88
2021/03/31 01:02:21;;;;;;;35.55;20.48;;;;;;;6.64;92.50;102040.13;5032454;28;20102;-84
2021/03/31 01:04:46;;;;;;;32.47;20.13;;;;;;;6.58;92.39;102030.75;5049697;28;20053;-88
2021/03/31 01:07:12;;;;;;;32.55;20.48;;;;;;;6.58;92.35;102030.75;5049615;28;20041;-85
2021/03/31 01:09:38;;;;;;;31.30;19.88;;;;;;;6.58;92.89;102020.06;5039088;28;20060;-89
2021/03/31 01:12:25;;;;;;;32.03;20.85;;;;;;;6.62;92.00;102029.59;5013514;28;20053;-82
2021/03/31 01:15:10;;;;;;;33.90;19.80;;;;;;;6.58;91.56;102024.56;5049008;28;20133;-81
2021/03/31 01:17:57;;;;;;;34.75;20.63;;;;;;;6.53;92.40;102020.41;5031162;28;20045;-84
2021/03/31 01:20:50;;;;;;;34.17;20.60;;;;;;;6.53;92.11;102007.09;5048372;28;20496;-85
2021/03/31 01:23:39;;;;;;;32.03;19.98;;;;;;;6.55;92.08;102005.13;5051817;28;20110;-84
2021/03/31 01:26:22;;;;;;;33.90;22.17;;;;;;;6.55;92.60;102007.81;5049105;28;20044;-85
2021/03/31 01:28:59;;;;;;;33.00;20.48;;;;;;;6.50;92.45;101999.31;5034173;28;20063;-87
2021/03/31 01:31:39;;;;;;;34.83;22.58;;;;;;;6.47;91.59;102007.53;5033548;28;20093;-83
2021/03/31 01:34:24;;;;;;;35.08;21.88;;;;;;;6.42;91.96;101996.31;5030094;28;20132;-84
2021/03/31 01:36:52;;;;;;;34.65;22.75;;;;;;;6.39;91.87;101999.19;5031832;28;20568;-84
2021/03/31 01:39:24;;;;;;;33.25;22.20;;;;;;;6.40;92.21;101995.56;5052383;28;20132;-85
2021/03/31 01:41:52;;;;;;;35.13;22.88;;;;;;;6.34;92.19;101993.34;5032171;28;20045;-85
2021/03/31 01:44:20;;;;;;;36.15;22.38;;;;;;;6.38;92.86;101996.63;5048364;28;20462;-83
2021/03/31 01:46:52;;;;;;;36.05;22.50;;;;;;;6.30;92.46;101990.03;5015770;28;20053;-82
2021/03/31 01:49:21;;;;;;;34.30;22.98;;;;;;;6.26;93.20;101987.69;5048781;28;20048;-85
2021/03/31 01:51:48;;;;;;;33.22;22.98;;;;;;;6.29;93.20;101982.13;5050673;28;20057;-84
2021/03/31 01:54:16;;;;;;;37.38;23.67;;;;;;;6.27;93.34;101976.03;5033929;28;20583;-84
2021/03/31 01:56:42;;;;;;;39.17;23.17;;;;;;;6.32;93.17;101982.75;5032889;28;20037;-83
2021/03/31 01:59:09;;;;;;;38.63;24.10;;;;;;;6.27;91.54;101978.72;5032282;28;20044;-83
2021/03/31 02:01:35;;;;;;;35.47;24.65;;;;;;;6.24;92.79;101970.94;5034765;28;20048;-84
2021/03/31 02:04:00;;;;;;;35.60;23.65;;;;;;;6.24;93.01;101965.59;5050673;28;20555;-81
2021/03/31 02:06:30;;;;;;;38.70;23.13;;;;;;;6.22;93.90;101970.19;5022698;28;20046;-82
2021/03/31 02:08:58;;;;;;;37.25;24.63;;;;;;;6.17;93.99;101967.84;5033790;28;20037;-83
2021/03/31 02:11:28;;;;;;;34.60;23.38;;;;;;;6.11;93.32;101968.28;5033427;28;20045;-85
2021/03/31 02:13:55;;;;;;;37.83;24.55;;;;;;;6.05;94.14;101958.06;5033698;28;20048;-85
2021/03/31 02:16:23;;;;;;;33.15;22.40;;;;;;;6.03;94.11;101959.97;5014726;28;20037;-82
2021/03/31 02:18:50;;;;;;;38.53;23.58;;;;;;;6.01;94.24;101962.75;5034036;28;20070;-85
2021/03/31 02:21:16;;;;;;;29.95;21.63;;;;;;;6.00;93.59;101955.69;5017064;28;20079;-83
2021/03/31 02:23:43;;;;;;;38.55;22.92;;;;;;;6.10;94.05;101954.09;5014543;28;20056;-84
2021/03/31 02:26:09;;;;;;;34.35;21.85;;;;;;;6.06;92.89;101954.41;5032649;28;20059;-84
2021/03/31 02:28:35;;;;;;;36.88;24.10;;;;;;;6.12;93.23;101958.47;5034415;28;20044;-84
2021/03/31 02:31:04;;;;;;;33.95;22.25;;;;;;;5.96;91.48;101956.88;5050932;28;20044;-85
2021/03/31 02:33:45;;;;;;;36.65;24.77;;;;;;;5.97;92.98;101947.06;5052999;28;20035;-85
2021/03/31 02:36:23;;;;;;;37.72;23.20;;;;;;;6.02;93.07;101942.28;5015051;28;20424;-83
2021/03/31 02:38:50;;;;;;;36.08;22.33;;;;;;;6.07;93.22;101941.00;5017328;28;20036;-90
2021/03/31 02:41:18;;;;;;;33.30;23.13;;;;;;;6.04;92.24;101940.34;5032344;28;20048;-83
2021/03/31 02:43:50;;;;;;;34.42;22.73;;;;;;;6.00;93.03;101937.03;5051110;28;20053;-87
2021/03/31 02:46:23;;;;;;;35.33;23.08;;;;;;;5.87;92.09;101938.84;5040931;28;20041;-84
2021/03/31 02:49:01;;;;;;;33.92;23.70;;;;;;;5.92;93.16;101934.00;5052576;28;20077;-84
2021/03/31 02:51:34;;;;;;;35.00;22.85;;;;;;;5.93;93.98;101935.78;5018198;28;20039;-85
2021/03/31 02:54:01;;;;;;;36.53;24.08;;;;;;;5.83;93.63;101926.66;5047056;28;20052;-84
2021/03/31 02:56:30;;;;;;;35.38;22.40;;;;;;;5.81;93.28;101923.25;5001186;28;20045;-86
2021/03/31 02:58:59;;;;;;;35.67;23.10;;;;;;;5.86;93.85;101923.78;5036108;28;20504;-83
2021/03/31 03:01:27;;;;;;;37.85;25.17;;;;;;;5.84;93.56;101913.25;5048627;28;20048;-83
2021/03/31 03:03:57;;;;;;;36.55;23.83;;;;;;;5.84;93.42;101915.03;5033030;28;20041;-83
2021/03/31 03:06:29;;;;;;;35.90;24.33;;;;;;;5.76;93.71;101909.41;5049354;28;20064;-84
2021/03/31 03:09:01;;;;;;;42.38;27.60;;;;;;;5.67;94.41;101910.91;5046948;28;20093;-83
2021/03/31 03:11:28;;;;;;;40.20;27.63;;;;;;;5.69;95.23;101906.28;5030140;28;20076;-84
2021/03/31 03:13:56;;;;;;;42.10;26.85;;;;;;;5.65;94.47;101907.47;5049485;28;20128;-85
2021/03/31 03:16:23;;;;;;;41.03;26.55;;;;;;;5.69;94.58;101902.78;5038756;28;20036;-83
2021/03/31 03:18:49;;;;;;;42.33;26.98;;;;;;;5.60;94.71;101899.78;5031038;28;20090;-83
2021/03/31 03:21:16;;;;;;;39.05;26.92;;;;;;;5.56;95.16;101903.63;5030438;28;20048;-86
2021/03/31 03:23:43;;;;;;;44.72;28.45;;;;;;;5.51;94.90;101907.56;5049308;28;20053;-82
2021/03/31 03:26:12;;;;;;;39.97;27.90;;;;;;;5.62;94.38;101905.03;5030923;28;20049;-85
2021/03/31 03:28:40;;;;;;;46.72;27.92;;;;;;;5.65;93.71;101907.47;5048431;28;20528;-85
2021/03/31 03:31:11;;;;;;;45.95;28.88;;;;;;;5.52;94.27;101911.94;5046760;28;20440;-84
2021/03/31 03:33:37;;;;;;;47.72;28.45;;;;;;;5.40;93.91;101908.28;5046854;28;20073;-86
2021/03/31 03:36:05;;;;;;;44.78;28.05;;;;;;;5.51;95.50;101905.75;5032744;28;20053;-84
2021/03/31 03:38:33;;;;;;;39.75;26.85;;;;;;;5.53;94.26;101903.00;5032133;28;20067;-83
2021/03/31 03:41:13;;;;;;;44.38;27.42;;;;;;;5.55;93.31;101903.72;5056182;28;20063;-84
2021/03/31 03:43:41;;;;;;;41.90;26.20;;;;;;;5.55;94.27;101901.94;4995208;28;20045;-87
2021/03/31 03:46:11;;;;;;;46.83;27.05;;;;;;;5.57;94.29;101894.69;5046427;28;20029;-84
2021/03/31 03:48:39;;;;;;;39.70;26.23;;;;;;;5.52;94.15;101895.94;5043775;28;20049;-85
2021/03/31 03:51:09;;;;;;;40.08;26.63;;;;;;;5.48;94.61;101900.63;5056249;28;20131;-83
2021/03/31 03:53:35;;;;;;;40.97;26.92;;;;;;;5.36;94.93;101896.16;5013316;28;20489;-85
2021/03/31 03:56:03;;;;;;;38.63;25.05;;;;;;;5.26;95.40;101901.22;5047964;28;20040;-84
2021/03/31 03:58:29;;;;;;;42.70;26.60;;;;;;;5.18;95.72;101893.78;5043742;28;20103;-85
2021/03/31 04:00:58;;;;;;;41.08;27.17;;;;;;;5.24;96.17;101889.00;5043057;28;20048;-87
2021/03/31 04:03:23;;;;;;;38.63;26.15;;;;;;;5.26;96.11;101895.06;5029261;28;20512;-83
2021/03/31 04:05:49;;;;;;;39.47;25.38;;;;;;;5.31;95.87;101893.78;5045823;28;20049;-82
2021/03/31 04:08:14;;;;;;;39.13;25.70;;;;;;;5.29;95.54;101894.84;5030585;28;20492;-82
2021/03/31 04:10:42;;;;;;;39.33;25.55;;;;;;;5.31;95.83;101882.28;5013155;28;20347;-81
2021/03/31 04:13:11;;;;;;;40.20;24.95;;;;;;;5.24;95.69;101881.03;5037534;28;20151;-84
2021/03/31 04:15:39;;;;;;;35.23;23.97;;;;;;;5.13;95.43;101879.91;5028495;28;20103;-84
2021/03/31 04:18:05;;;;;;;39.85;24.27;;;;;;;5.20;96.30;101883.00;5015471;28;20044;-84
2021/03/31 04:20:31;;;;;;;36.83;23.42;;;;;;;5.21;94.07;101882.06;5029260;28;20043;-83
2021/03/31 04:22:57;;;;;;;38.28;24.00;;;;;;;5.26;94.97;101873.75;5047949;28;20409;-83
2021/03/31 04:25:24;;;;;;;40.80;24.38;;;;;;;5.26;95.17;101879.94;5045631;28;20049;-83
2021/03/31 04:27:53;;;;;;;38.08;24.27;;;;;;;5.23;94.39;101888.13;5029372;28;20524;-84
2021/03/31 04:30:22;;;;;;;38.17;23.83;;;;;;;5.16;94.57;101879.72;5031427;28;20133;-84
2021/03/31 04:32:50;;;;;;;35.15;24.10;;;;;;;5.03;94.39;101877.97;5009452;28;20102;-85
2021/03/31 04:35:18;;;;;;;38.42;24.48;;;;;;;5.14;94.67;101878.94;5027281;28;20087;-81
2021/03/31 04:37:43;;;;;;;37.97;24.52;;;;;;;5.22;94.99;101877.59;5029167;28;20044;-84
2021/03/31 04:40:11;;;;;;;36.95;23.70;;;;;;;5.15;95.03;101872.69;5029815;28;20045;-87
2021/03/31 04:42:36;;;;;;;34.90;22.83;;;;;;;5.06;95.38;101873.28;5029905;28;20127;-86
2021/03/31 04:45:04;;;;;;;40.97;24.92;;;;;;;5.01;95.64;101874.56;5037279;28;20132;-86
2021/03/31 04:47:32;;;;;;;32.97;22.85;;;;;;;5.05;95.11;101873.41;5026399;28;20404;-83
2021/03/31 04:49:59;;;;;;;35.08;23.33;;;;;;;5.10;95.79;101872.13;5046286;28;20044;-84
2021/03/31 04:52:24;;;;;;;32.78;22.95;;;;;;;5.13;95.89;101874.59;5046291;28;20057;-87
2021/03/31 04:54:50;;;;;;;37.47;23.73;;;;;;;5.08;94.83;101866.06;5047335;28;20071;-88
2021/03/31 04:57:15;;;;;;;39.33;24.23;;;;;;;5.07;95.39;101868.84;5046093;28;20090;-83
2021/03/31 04:59:41;;;;;;;38.50;24.80;;;;;;;4.91;95.66;101874.31;5012252;28;20447;-82
2021/03/31 05:02:06;;;;;;;38.20;24.77;;;;;;;4.89;96.85;101870.88;4998076;28;20037;-84
2021/03/31 05:04:32;;;;;;;36.90;24.30;;;;;;;4.83;96.79;101879.28;5024999;28;20049;-83
2021/03/31 05:06:57;;;;;;;37.75;24.77;;;;;;;4.87;96.56;101878.97;5029209;28;20390;-82
2021/03/31 05:09:23;;;;;;;38.95;24.50;;;;;;;4.90;96.24;101870.81;5046259;28;20099;-84
2021/03/31 05:11:49;;;;;;;36.60;23.58;;;;;;;4.94;96.00;101863.47;5027427;28;20049;-87
2021/03/31 05:14:14;;;;;;;37.63;24.00;;;;;;;4.90;96.09;101867.28;5011084;28;20481;-83
2021/03/31 05:16:40;;;;;;;35.42;23.33;;;;;;;4.89;96.92;101866.44;5024667;28;20056;-82
2021/03/31 05:19:05;;;;;;;32.50;23.23;;;;;;;4.89;96.29;101866.44;5044881;28;20048;-84
2021/03/31 05:21:30;;;;;;;38.20;24.63;;;;;;;4.92;96.52;101860.91;5046269;28;20051;-85
2021/03/31 05:23:57;;;;;;;37.38;23.92;;;;;;;4.93;96.18;101869.75;4995550;28;20452;-87
2021/03/31 05:26:23;;;;;;;35.80;23.60;;;;;;;4.92;96.38;101865.34;5044423;28;20037;-84
2021/03/31 05:28:50;;;;;;;37.20;22.60;;;;;;;4.91;95.61;101864.50;5012698;28;20052;-83
2021/03/31 05:31:15;;;;;;;34.65;23.13;;;;;;;4.90;95.94;101861.97;5007584;28;20037;-89
2021/03/31 05:33:40;;;;;;;37.15;22.70;;;;;;;4.93;96.09;101856.44;5045760;28;20041;-87
2021/03/31 05:36:09;;;;;;;36.83;23.15;;;;;;;4.93;95.80;101857.28;5027366;28;20033;-83
2021/03/31 05:38:34;;;;;;;33.90;23.45;;;;;;;4.95;96.54;101859.88;5043851;28;20056;-86
2021/03/31 05:41:01;;;;;;;39.72;22.88;;;;;;;4.93;96.44;101859.09;5042736;28;20404;-87
2021/03/31 05:43:27;;;;;;;36.95;23.33;;;;;;;4.94;96.19;101851.00;5039865;28;20049;-84
2021/03/31 05:45:55;;;;;;;34.85;23.27;;;;;;;4.95;96.19;101851.88;5032869;28;20079;-90
2021/03/31 05:48:21;;;;;;;37.25;23.73;;;;;;;4.98;96.28;101849.88;5047164;28;20041;-87
2021/03/31 05:50:47;;;;;;;38.40;22.67;;;;;;;5.03;96.34;101852.19;5052446;28;20041;-85
2021/03/31 05:53:14;;;;;;;37.20;22.48;;;;;;;5.05;95.66;101855.63;5050137;28;20036;-83
2021/03/31 05:55:43;;;;;;;36.63;22.50;;;;;;;5.11;95.53;101835.72;5057999;28;20511;-90
2021/03/31 05:58:20;;;;;;;34.63;21.10;;;;;;;5.14;95.41;101846.16;5031337;28;20068;-82
2021/03/31 06:00:52;;;;;;;36.33;21.70;;;;;;;5.21;95.88;101834.16;5049358;28;20045;-88
2021/03/31 06:03:18;;;;;;;37.35;22.60;;;;;;;5.20;95.45;101843.94;5018394;28;20127;-80
2021/03/31 06:05:49;;;;;;;34.60;22.10;;;;;;;5.27;95.49;101843.56;5050287;28;20136;-88
2021/03/31 06:08:15;;;;;;;33.33;20.17;;;;;;;5.36;95.25;101848.25;5046543;28;20065;-83
2021/03/31 06:10:42;;;;;;;39.90;21.13;;;;;;;5.45;94.97;101844.94;5049893;28;20061;-84
2021/03/31 06:13:09;;;;;;;35.83;21.63;;;;;;;5.55;94.50;101848.69;5051569;28;20099;-81
2021/03/31 06:15:43;;;;;;;30.45;20.98;;;;;;;5.62;93.57;101855.28;5033168;28;20068;-85
2021/03/31 06:18:09;;;;;;;36.00;21.27;;;;;;;5.76;93.27;101845.50;5015880;28;20679;-84
2021/03/31 06:20:38;;;;;;;35.38;19.92;;;;;;;5.95;92.38;101847.72;5030004;28;20124;-83
2021/03/31 06:25:46;;;;;;;32.15;19.42;;;;;;;6.22;90.47;101842.25;5048691;28;19925;-86
2021/03/31 06:28:26;;;;;;;33.80;19.77;;;;;;;6.42;89.47;101844.34;5047556;28;20508;-80
2021/03/31 06:30:52;;;;;;;33.28;18.90;;;;;;;6.71;86.28;101839.53;5049521;28;20118;-86
2021/03/31 06:33:19;;;;;;;30.85;17.98;;;;;;;7.10;83.18;101844.66;5031508;28;22321;-86
2021/03/31 06:35:50;;;;;;;28.65;17.33;;;;;;;7.35;82.62;101843.63;5014311;28;20050;-83
2021/03/31 06:38:16;;;;;;;30.50;17.58;;;;;;;7.55;81.90;101837.59;5046620;28;20093;-84
2021/03/31 06:40:49;;;;;;;32.25;16.70;;;;;;;7.86;79.37;101844.06;5050171;28;20033;-87
2021/03/31 06:43:29;;;;;;;31.25;17.10;;;;;;;8.24;76.72;101839.31;5031200;28;20566;-83
2021/03/31 06:48:24;;;;;;;26.10;15.43;;;;;;;8.66;73.38;101836.81;5050519;28;20063;-81
2021/03/31 06:50:49;;;;;;;26.60;16.83;;;;;;;8.81;73.49;101825.72;5015581;28;20087;-85
2021/03/31 06:53:25;;;;;;;30.15;16.77;;;;;;;9.13;70.74;101822.16;5047258;28;20044;-85
2021/03/31 06:56:03;;;;;;;27.95;16.08;;;;;;;9.43;69.46;101831.22;5041938;28;20049;-85
2021/03/31 06:58:29;;;;;;;26.60;15.40;;;;;;;9.68;67.47;101829.97;5056134;28;20055;-85
2021/03/31 07:00:56;;;;;;;25.98;15.10;;;;;;;9.85;68.23;101825.81;5031846;28;20041;-84
2021/03/31 07:03:24;;;;;;;26.33;15.65;;;;;;;10.09;65.99;101825.50;5030580;28;20040;-84
2021/03/31 07:05:50;;;;;;;24.35;14.23;;;;;;;10.29;65.89;101816.53;5055612;28;20048;-87
2021/03/31 07:08:17;;;;;;;27.15;14.65;;;;;;;10.46;65.06;101820.41;5071077;28;20064;-86
2021/03/31 07:10:54;;;;;;;22.92;14.07;;;;;;;10.75;63.98;101827.63;5042891;28;20064;-85
2021/03/31 07:13:29;;;;;;;22.40;12.73;;;;;;;10.98;63.94;101815.63;5033082;28;20485;-88
2021/03/31 07:15:57;;;;;;;24.48;13.70;;;;;;;11.17;61.99;101824.69;5038145;28;20098;-87
2021/03/31 07:18:27;;;;;;;20.40;13.57;;;;;;;11.26;62.47;101813.06;5021450;28;20037;-87
2021/03/31 07:20:53;;;;;;;22.25;13.52;;;;;;;11.43;62.15;101817.69;5032652;28;20537;-87
2021/03/31 07:23:23;;;;;;;25.40;12.60;;;;;;;11.63;60.28;101821.19;5029728;28;20048;-83
2021/03/31 07:25:49;;;;;;;20.33;12.50;;;;;;;11.77;61.62;101813.63;5028303;28;20041;-87
2021/03/31 07:28:24;;;;;;;22.67;12.65;;;;;;;11.98;60.22;101818.84;5029995;28;20369;-89
2021/03/31 07:30:51;;;;;;;23.73;13.63;;;;;;;12.19;60.43;101812.19;5019737;28;20099;-86
2021/03/31 07:33:27;;;;;;;21.67;12.43;;;;;;;12.29;60.02;101816.69;5012271;28;20286;-87
2021/03/31 07:35:53;;;;;;;23.20;13.15;;;;;;;12.36;59.25;101810.53;5026982;28;20034;-84
2021/03/31 07:38:21;;;;;;;22.67;12.60;;;;;;;12.58;57.62;101816.50;5024419;28;20072;-90
2021/03/31 07:40:49;;;;;;;21.55;12.20;;;;;;;12.73;58.27;101816.81;5030707;28;20043;-84
2021/03/31 07:43:27;;;;;;;23.75;12.32;;;;;;;12.83;57.56;101814.88;5016131;28;20071;-87
2021/03/31 07:46:15;;;;;;;25.38;12.50;;;;;;;12.96;57.42;101814.50;5058813;28;20090;-86
2021/03/31 07:48:47;;;;;;;20.80;11.75;;;;;;;13.12;55.87;101817.34;5046771;28;20037;-88
2021/03/31 07:51:19;;;;;;;22.38;11.80;;;;;;;13.25;55.26;101815.09;5047330;28;20040;-85
2021/03/31 07:53:46;;;;;;;22.08;12.20;;;;;;;13.32;57.10;101816.19;5032558;28;20045;-90
2021/03/31 07:56:15;;;;;;;20.25;11.52;;;;;;;13.46;56.48;101822.81;5014883;28;20049;-86
2021/03/31 07:58:40;;;;;;;20.80;11.65;;;;;;;13.58;55.90;101825.28;5012075;28;20048;-87
2021/03/31 08:01:08;;;;;;;20.58;11.85;;;;;;;13.72;55.89;101819.28;5047851;28;20455;-81
2021/03/31 08:03:47;;;;;;;22.52;11.65;;;;;;;13.84;55.39;101820.72;5039218;28;20051;-83
2021/03/31 08:06:20;;;;;;;22.10;12.60;;;;;;;13.95;54.63;101823.16;5057156;28;20131;-80
2021/03/31 08:08:51;;;;;;;24.00;12.35;;;;;;;14.10;55.99;101809.88;5057861;28;20503;-84
2021/03/31 08:11:36;;;;;;;22.27;11.70;;;;;;;14.26;53.81;101821.72;5045393;28;20473;-80
2021/03/31 08:14:02;;;;;;;19.35;11.38;;;;;;;14.43;54.13;101812.69;5057114;28;20045;-80
2021/03/31 08:16:40;;;;;;;22.50;11.70;;;;;;;14.65;51.87;101817.50;5042306;28;20056;-81
2021/03/31 08:19:41;;;;;;;20.58;12.13;;;;;;;14.71;52.05;101812.44;5037564;28;20044;-85
2021/03/31 08:22:26;;;;;;;23.45;11.65;;;;;;;14.76;51.91;101818.16;4994519;28;20037;-89
2021/03/31 08:25:12;;;;;;;22.40;11.90;;;;;;;14.87;51.08;101815.13;5062864;28;20048;-86
2021/03/31 08:27:56;;;;;;;20.40;11.55;;;;;;;15.02;52.13;101816.19;5047706;28;20037;-88
2021/03/31 08:30:24;;;;;;;18.70;10.70;;;;;;;15.23;50.89;101812.13;5045116;28;20060;-85
2021/03/31 08:32:53;;;;;;;20.17;11.23;;;;;;;15.41;48.96;101811.91;5048719;28;20075;-90
2021/03/31 08:35:20;;;;;;;20.15;11.68;;;;;;;15.50;50.23;101813.59;5046174;28;20099;-84
2021/03/31 08:37:52;;;;;;;23.63;11.23;;;;;;;15.68;49.96;101814.28;5019514;28;20049;-83
2021/03/31 08:40:19;;;;;;;19.13;10.57;;;;;;;15.85;48.01;101811.50;5048416;28;20056;-84
2021/03/31 08:43:07;;;;;;;20.65;10.70;;;;;;;15.96;47.92;101813.84;5014714;28;20493;-89
2021/03/31 08:45:42;;;;;;;17.83;10.07;;;;;;;16.21;47.07;101815.44;5044420;28;20056;-86
2021/03/31 08:48:09;;;;;;;20.40;9.98;;;;;;;16.40;46.24;101811.44;5016978;28;20440;-88
2021/03/31 08:50:39;;;;;;;19.70;10.00;;;;;;;16.50;44.33;101805.78;5042776;28;20037;-89
2021/03/31 08:53:11;;;;;;;16.92;9.68;;;;;;;16.59;44.22;101809.28;5032330;28;20512;-85
2021/03/31 08:55:49;;;;;;;18.20;10.68;;;;;;;16.67;44.84;101803.81;5046245;28;20049;-80
2021/03/31 08:58:20;;;;;;;16.70;10.00;;;;;;;16.76;45.78;101802.78;5032758;28;20424;-85
2021/03/31 09:00:55;;;;;;;19.67;10.30;;;;;;;16.90;44.25;101801.16;5018711;28;20044;-86
2021/03/31 09:03:21;;;;;;;15.90;10.23;;;;;;;16.88;43.87;101798.59;5032107;28;20495;-86
2021/03/31 09:06:01;;;;;;;18.17;9.82;;;;;;;17.02;43.41;101799.69;5046159;28;20045;-87
2021/03/31 09:08:29;;;;;;;18.30;9.57;;;;;;;17.15;42.99;101788.25;5027585;28;20036;-84
2021/03/31 09:10:59;;;;;;;19.05;10.05;;;;;;;17.25;44.46;101793.38;5031806;28;20393;-85
2021/03/31 09:13:34;;;;;;;16.52;10.13;;;;;;;17.34;43.39;101792.28;5047505;28;20041;-82
2021/03/31 09:16:13;;;;;;;18.13;9.73;;;;;;;17.47;42.05;101791.66;5004995;28;20144;-89
2021/03/31 09:18:39;;;;;;;17.23;10.10;;;;;;;17.53;43.67;101785.47;5047345;28;20060;-86
2021/03/31 09:21:07;;;;;;;20.02;10.32;;;;;;;17.71;42.16;101782.41;5048778;28;20045;-84
2021/03/31 09:23:33;;;;;;;18.73;10.63;;;;;;;17.83;40.59;101788.22;5031014;28;20052;-91
2021/03/31 09:26:04;;;;;;;17.75;10.13;;;;;;;17.94;42.14;101783.16;5036108;28;20409;-87
2021/03/31 09:28:30;;;;;;;18.95;10.13;;;;;;;18.01;41.84;101788.66;5048839;28;20060;-85
2021/03/31 09:31:06;;;;;;;21.58;11.05;;;;;;;18.12;42.52;101776.50;5004493;28;20105;-87
2021/03/31 09:33:34;;;;;;;18.90;11.05;;;;;;;18.27;42.62;101778.16;5048568;28;20045;-84
2021/03/31 09:36:13;;;;;;;23.23;10.90;;;;;;;18.26;42.39;101773.72;5029730;28;20072;-85
2021/03/31 09:38:39;;;;;;;21.23;10.60;;;;;;;18.36;40.67;101776.16;5027134;28;20061;-89
2021/03/31 09:41:06;;;;;;;19.70;10.10;;;;;;;18.51;41.73;101770.66;5037879;28;20037;-85
2021/03/31 09:43:38;;;;;;;19.15;10.27;;;;;;;18.62;40.77;101769.34;5034483;28;20097;-87
2021/03/31 09:46:03;;;;;;;19.55;11.02;;;;;;;18.62;40.75;101770.16;5045865;28;20036;-89
2021/03/31 09:48:29;;;;;;;19.42;10.48;;;;;;;18.67;40.11;101772.28;5033877;28;20045;-85
2021/03/31 09:50:55;;;;;;;19.20;10.80;;;;;;;18.87;42.06;101773.38;5051112;28;20045;-86
2021/03/31 09:53:25;;;;;;;21.27;11.93;;;;;;;18.90;41.05;101761.22;5032076;28;20047;-89
2021/03/31 09:55:53;;;;;;;19.45;10.45;;;;;;;19.02;39.95;101770.56;5026592;28;20075;-85
2021/03/31 09:58:26;;;;;;;17.05;10.95;;;;;;;19.01;41.77;101754.44;5030993;28;20051;-89
2021/03/31 10:00:53;;;;;;;19.45;10.45;;;;;;;19.17;39.64;101757.72;5034300;28;20719;-89
2021/03/31 10:03:20;;;;;;;15.65;9.50;;;;;;;19.36;37.54;101749.88;5035585;28;20041;-85
2021/03/31 10:05:46;;;;;;;16.40;10.07;;;;;;;19.42;38.24;101759.13;5051767;28;20051;-86
2021/03/31 10:08:21;;;;;;;18.13;9.95;;;;;;;19.48;36.53;101750.16;5051893;28;20033;-86
2021/03/31 10:10:49;;;;;;;17.23;10.02;;;;;;;19.58;37.36;101751.47;5051381;28;20447;-90
2021/03/31 10:13:16;;;;;;;14.77;9.60;;;;;;;19.72;37.50;101748.88;5017940;28;20033;-85
2021/03/31 10:15:45;;;;;;;16.50;8.90;;;;;;;19.73;35.70;101740.50;5030784;28;20111;-87
2021/03/31 10:18:11;;;;;;;16.25;10.00;;;;;;;19.76;37.31;101733.81;5040465;28;20044;-86
2021/03/31 10:20:43;;;;;;;16.75;9.30;;;;;;;19.92;36.47;101736.19;5011186;28;20044;-85
2021/03/31 10:23:35;;;;;;;15.52;9.65;;;;;;;20.05;37.41;101736.25;5045660;28;20056;-86
2021/03/31 10:26:20;;;;;;;17.20;10.43;;;;;;;20.09;35.01;101733.94;5009147;28;20048;-84
2021/03/31 10:28:50;;;;;;;18.08;10.18;;;;;;;20.19;37.29;101728.09;5034494;28;20049;-84
2021/03/31 10:31:28;;;;;;;16.13;9.63;;;;;;;20.33;34.50;101729.81;5050914;28;20041;-84
2021/03/31 10:33:55;;;;;;;17.48;9.95;;;;;;;20.46;34.23;101738.03;5047061;28;20106;-83
2021/03/31 10:36:46;;;;;;;18.08;10.75;;;;;;;20.38;35.96;101727.31;5031763;28;20370;-86
2021/03/31 10:49:57;;;;;;;20.08;11.15;;;;;;;20.64;35.58;101714.81;5030982;28;20047;-88
2021/03/31 10:52:33;;;;;;;21.23;11.15;;;;;;;20.59;35.16;101709.97;5014778;28;20041;-87
2021/03/31 10:54:58;;;;;;;17.85;10.45;;;;;;;20.66;36.09;101712.72;5029891;28;20102;-87
2021/03/31 10:57:24;;;;;;;17.08;9.57;;;;;;;20.77;35.98;101706.59;5014301;28;20049;-88
2021/03/31 10:59:49;;;;;;;17.75;10.38;;;;;;;20.95;34.76;101701.38;5028872;28;20097;-89
2021/03/31 11:02:16;;;;;;;19.05;11.13;;;;;;;21.07;35.72;101704.31;5033561;28;20485;-86
2021/03/31 11:04:42;;;;;;;19.77;12.20;;;;;;;21.08;34.53;101707.88;5033327;28;20067;-87
2021/03/31 11:07:08;;;;;;;16.77;10.73;;;;;;;21.19;36.15;101713.50;5032424;28;20044;-87
2021/03/31 11:09:34;;;;;;;18.15;10.95;;;;;;;21.28;35.67;101714.13;5049930;28;20032;-86
2021/03/31 11:11:59;;;;;;;17.42;10.55;;;;;;;21.27;34.33;101707.00;5040892;28;20043;-88
2021/03/31 11:14:26;;;;;;;19.27;11.00;;;;;;;21.21;34.10;101707.03;5016214;28;20408;-85
2021/03/31 11:16:57;;;;;;;20.38;10.88;;;;;;;21.29;35.36;101702.19;5019110;28;20092;-86
2021/03/31 11:27:17;;;;;;;19.23;10.88;;;;;;;21.55;35.03;101692.25;5047254;28;20064;-87
2021/03/31 11:29:42;;;;;;;18.10;10.90;;;;;;;21.56;33.59;101691.19;4998716;28;20416;-88
2021/03/31 11:32:09;;;;;;;20.33;10.57;;;;;;;21.60;32.18;101695.16;5032839;28;20128;-85
2021/03/31 11:34:41;;;;;;;17.20;10.45;;;;;;;21.59;32.67;101686.16;5021245;28;20090;-89
2021/03/31 11:37:09;;;;;;;17.75;10.40;;;;;;;21.64;34.05;101677.31;5032523;28;20049;-89
2021/03/31 11:39:40;;;;;;;17.88;11.35;;;;;;;21.83;36.78;101686.47;5048702;28;20089;-86
2021/03/31 11:42:06;;;;;;;25.40;11.20;;;;;;;22.01;34.54;101672.94;5034304;28;20037;-84
2021/03/31 11:44:31;;;;;;;20.70;11.50;;;;;;;22.15;34.02;101676.41;5036823;28;20059;-87
2021/03/31 11:46:57;;;;;;;16.60;10.07;;;;;;;22.27;34.65;101671.97;5032905;28;20040;-89
2021/03/31 11:49:22;;;;;;;17.63;10.05;;;;;;;22.34;31.56;101665.59;5050051;28;20045;-88